Latest Weather Observations for Parndana

IDS60801

Issued at 4:01 pm CST Thursday 5 May 2016 (issued every 30 minutes, with the page automatically refreshed every 10 minutes)

About weather observations | Map of weather stations | Latest weather observations for SA | Other Formats
Station Details ID: 022843 Name: PARNDANA CFS AWS Lat: -35.79 Lon: 137.25 Height: 165.0 m
Data from the previous 72 hours. | See also: Recent months at Parndana
Date/Time
CST
Temp
°C
App
Temp
°C
Dew
Point
Rel
Hum
%
Delta-T
°C
Wind Press
QNH
hPa
Press
MSL
hPa
Rain
since 9 am
mm
Dir
 
Spd
km/h
Gust
km/h
Spd
kts
Gust
kts
05/04:00pm 20.9 17.0 12.1 57 5.0 NNW 24 37 13 20 - - 0.0
05/03:30pm 21.2 16.5 12.1 56 5.1 NNW 28 39 15 21 - - 0.0
05/03:00pm 21.2 16.4 12.9 59 4.8 NW 30 43 16 23 - - 0.0
05/02:30pm 21.0 15.8 12.7 59 4.7 NNW 32 44 17 24 - - 0.0
05/02:00pm 20.6 15.1 12.6 60 4.5 NW 33 44 18 24 - - 0.0
05/01:30pm 20.6 15.2 12.8 61 4.5 NW 33 48 18 26 - - 0.0
05/01:00pm 20.2 15.5 13.2 64 4.0 NW 30 46 16 25 - - 0.0
05/12:45pm 20.2 15.2 13.4 65 3.9 NW 32 50 17 27 - - 0.0
05/12:30pm 20.1 14.3 12.6 62 4.3 NW 35 48 19 26 - - 0.0
05/12:00pm 20.1 14.7 12.8 63 4.2 NNW 33 48 18 26 - - 0.0
05/11:46am 20.0 15.6 13.0 64 4.0 NW 28 48 15 26 - - 0.0
05/11:30am 19.8 14.6 12.8 64 4.0 NW 32 46 17 25 - - 0.0
05/11:23am 19.7 15.3 12.9 65 3.9 NNW 28 46 15 25 - - 0.0
05/11:00am 19.5 15.6 13.4 68 3.5 NNW 26 39 14 21 - - 0.0
05/10:30am 18.8 15.0 13.6 72 3.0 NNW 26 39 14 21 - - 0.0
05/10:00am 18.3 14.6 13.8 75 2.6 NNW 26 39 14 21 - - 0.0
05/09:30am 17.5 13.6 13.2 76 2.4 NNW 26 35 14 19 - - 0.0
05/09:00am 16.9 13.1 13.6 81 1.9 NNW 26 37 14 20 - - 1.6
05/08:30am 16.2 12.7 13.5 84 1.5 NNW 24 33 13 18 - - 1.6
05/08:00am 15.5 12.8 13.5 88 1.1 NNW 20 26 11 14 - - 1.6
05/07:30am 14.8 11.9 13.0 89 1.0 NNW 20 30 11 16 - - 1.6
05/07:00am 14.6 11.8 13.1 91 0.8 NNW 20 32 11 17 - - 1.6
05/06:30am 14.8 11.7 13.3 91 0.8 NNW 22 32 12 17 - - 1.6
05/06:00am 14.7 12.2 13.4 92 0.7 NNW 19 28 10 15 - - 1.6
05/05:30am 15.0 12.4 13.7 92 0.7 NNW 20 26 11 14 - - 1.6
05/05:00am 15.0 11.5 13.5 91 0.8 NNW 24 33 13 18 - - 1.6
05/04:30am 15.2 12.2 13.7 91 0.8 NNW 22 32 12 17 - - 1.6
05/04:00am 15.2 11.8 13.7 91 0.8 NNW 24 35 13 19 - - 1.6
05/03:30am 14.9 12.2 13.6 92 0.7 NNW 20 35 11 19 - - 1.6
05/03:00am 15.1 12.6 14.0 93 0.6 NNW 20 32 11 17 - - 1.6
05/02:30am 14.8 11.8 13.7 93 0.6 NNW 22 30 12 16 - - 1.6
05/02:00am 14.4 10.9 13.3 93 0.6 NNW 24 33 13 18 - - 1.4
05/01:30am 14.1 11.4 13.5 96 0.3 NW 20 26 11 14 - - 1.2
05/01:00am 14.1 11.3 13.1 94 0.6 NNW 20 30 11 16 - - 0.8
05/12:30am 14.6 11.9 13.6 94 0.6 NNW 20 30 11 16 - - 0.8
05/12:00am 14.8 11.8 13.8 94 0.6 NW 22 30 12 16 - - 0.8
 
Date/Time
CST
Temp
°C
App
Temp
°C
Dew
Point
Rel
Hum
%
Delta-T
°C
Wind Press
QNH
hPa
Press
MSL
hPa
Rain
since 9 am
mm
Dir
 
Spd
km/h
Gust
km/h
Spd
kts
Gust
kts
04/11:30pm 14.8 12.4 13.7 93 0.6 NNW 19 26 10 14 - - 0.4
04/11:00pm 14.8 12.1 13.5 92 0.7 NNW 20 30 11 16 - - 0.4
04/10:30pm 14.8 11.7 13.5 92 0.7 NNW 22 33 12 18 - - 0.4
04/10:00pm 14.7 11.3 13.6 93 0.6 NNW 24 35 13 19 - - 0.4
04/09:30pm 14.8 11.2 13.2 90 0.9 NW 24 37 13 20 - - 0.4
04/09:00pm 14.9 10.9 12.9 88 1.1 NW 26 37 14 20 - - 0.4
04/08:30pm 14.9 10.9 13.1 89 1.0 NW 26 41 14 22 - - 0.4
04/08:00pm 14.8 11.2 13.2 90 0.9 NW 24 33 13 18 - - 0.4
04/07:30pm 14.0 11.3 12.9 93 0.6 NW 19 26 10 14 - - 0.4
04/07:00pm 14.2 11.0 13.2 94 0.6 NW 22 32 12 17 - - 0.4
04/06:30pm 14.3 10.7 13.0 92 0.7 NW 24 35 13 19 - - 0.4
04/06:00pm 14.4 11.5 12.8 90 0.9 NW 20 30 11 16 - - 0.4
04/05:30pm 14.1 11.1 12.7 91 0.8 NW 20 28 11 15 - - 0.4
04/05:00pm 14.4 10.7 12.8 90 0.9 NNW 24 37 13 20 - - 0.4
04/04:30pm 14.6 11.7 12.8 89 1.0 NNW 20 30 11 16 - - 0.4
04/04:00pm 14.4 10.7 12.6 89 1.0 NNW 24 32 13 17 - - 0.4
04/03:30pm 14.3 9.3 12.3 88 1.1 NW 30 39 16 21 - - 0.4
04/03:00pm 14.7 9.9 11.8 83 1.6 NNW 28 39 15 21 - - 0.4
04/02:30pm 14.6 10.9 12.6 88 1.1 NW 24 35 13 19 - - 0.2
04/02:00pm 15.9 10.4 10.7 71 2.8 NW 30 43 16 23 - - 0.2
04/01:30pm 15.8 10.8 10.8 72 2.7 NW 28 41 15 22 - - 0.2
04/01:00pm 15.2 10.9 12.0 81 1.7 NW 26 35 14 19 - - 0.2
04/12:30pm 14.7 11.6 11.7 82 1.6 NW 19 28 10 15 - - 0.0
04/12:00pm 13.6 9.1 11.5 87 1.1 WNW 26 43 14 23 - - 0.0
04/11:30am 15.6 12.2 11.2 75 2.4 NW 20 28 11 15 - - 0.0
04/11:00am 14.8 11.4 11.4 80 1.8 NW 20 28 11 15 - - 0.0
04/10:45am 14.9 9.6 9.7 71 2.7 NW 28 39 15 21 - - 0.0
04/10:30am 14.8 12.7 11.2 79 1.9 WNW 13 19 7 10 - - 0.0
04/10:00am 14.7 11.6 10.3 75 2.3 WNW 17 26 9 14 - - 0.0
04/09:30am 14.7 12.8 10.5 76 2.2 NW 11 17 6 9 - - 0.0
04/09:00am 13.1 11.4 9.7 80 1.8 NW 9 11 5 6 - - 0.8
04/08:30am 12.0 10.0 8.8 81 1.6 NW 9 13 5 7 - - 0.8
04/08:00am 11.1 9.1 8.7 85 1.2 NW 9 11 5 6 - - 0.8
04/07:30am 10.6 8.6 8.5 87 1.0 WNW 9 11 5 6 - - 0.8
04/07:00am 10.0 7.5 8.3 89 0.8 WNW 11 11 6 6 - - 0.8
04/06:30am 9.3 7.1 7.9 91 0.7 NW 9 11 5 6 - - 0.8
04/06:00am 9.4 7.2 7.8 90 0.8 WNW 9 9 5 5 - - 0.8
04/05:30am 8.6 6.4 7.7 94 0.4 WNW 9 11 5 6 - - 0.8
04/05:00am 7.5 4.6 6.4 93 0.5 WNW 11 13 6 7 - - 0.8
04/04:30am 7.8 5.0 6.9 94 0.4 WNW 11 13 6 7 - - 0.8
04/04:00am 8.0 5.3 7.2 95 0.4 WNW 11 13 6 7 - - 0.8
04/03:30am 8.2 5.4 7.1 93 0.5 W 11 13 6 7 - - 0.8
04/03:00am 9.3 6.8 8.1 92 0.6 WSW 11 13 6 7 - - 0.8
04/02:30am 10.2 7.4 8.6 90 0.8 WSW 13 20 7 11 - - 0.8
04/02:00am 9.3 6.3 7.9 91 0.7 W 13 15 7 8 - - 0.8
04/01:30am 10.4 7.2 8.3 87 1.0 W 15 20 8 11 - - 0.8
04/01:00am 10.6 7.1 8.9 89 0.8 W 17 20 9 11 - - 0.8
04/12:30am 10.5 8.1 8.8 89 0.8 WNW 11 15 6 8 - - 0.8
04/12:00am 10.6 8.4 9.2 91 0.7 W 11 15 6 8 - - 0.8
 
Date/Time
CST
Temp
°C
App
Temp
°C
Dew
Point
Rel
Hum
%
Delta-T
°C
Wind Press
QNH
hPa
Press
MSL
hPa
Rain
since 9 am
mm
Dir
 
Spd
km/h
Gust
km/h
Spd
kts
Gust
kts
03/11:30pm 11.0 8.4 9.3 89 0.9 WSW 13 20 7 11 - - 0.8
03/11:00pm 10.9 7.9 9.2 89 0.9 W 15 19 8 10 - - 0.8
03/10:30pm 10.5 8.6 9.1 91 0.7 WNW 9 11 5 6 - - 0.8
03/10:00pm 10.3 7.8 8.4 88 0.9 W 11 13 6 7 - - 0.8
03/09:30pm 10.2 7.7 8.1 87 1.0 WNW 11 13 6 7 - - 0.8
03/09:00pm 10.1 7.1 7.9 86 1.1 W 13 17 7 9 - - 0.8
03/08:30pm 9.1 6.4 7.2 88 0.9 W 11 11 6 6 - - 0.8
03/08:00pm 10.3 7.4 8.1 86 1.1 W 13 15 7 8 - - 0.8
03/07:30pm 11.4 8.6 8.6 83 1.4 W 13 19 7 10 - - 0.8
03/07:00pm 11.5 8.7 8.7 83 1.4 WSW 13 19 7 10 - - 0.8
03/06:30pm 10.2 8.0 8.0 86 1.1 W 9 11 5 6 - - 0.8
03/06:00pm 11.6 8.4 8.6 82 1.5 W 15 22 8 12 - - 0.8
03/05:30pm 12.6 8.9 9.6 82 1.5 W 19 24 10 13 - - 0.8
03/05:00pm 13.5 8.2 8.6 72 2.5 WSW 26 37 14 20 - - 0.8
03/04:30pm 14.1 8.7 8.1 67 3.0 WSW 26 37 14 20 - - 0.8
03/04:00pm 14.7 8.9 8.0 64 3.4 WSW 28 43 15 23 - - 0.8
03/03:32pm 14.3 6.9 6.9 61 3.6 WSW 35 54 19 29 - - 0.8
03/03:30pm 14.3 7.0 7.4 63 3.4 WSW 35 48 19 26 - - 0.8
03/03:00pm 15.0 7.7 8.7 66 3.2 WSW 37 48 20 26 - - 0.8
03/02:36pm 15.1 9.1 10.1 72 2.6 WSW 32 50 17 27 - - 0.8
03/02:30pm 14.5 9.3 10.3 76 2.2 WSW 28 46 15 25 - - 0.8
03/02:00pm 13.8 9.9 12.2 90 0.9 WSW 24 35 13 19 - - 0.8
03/01:30pm 12.9 6.5 10.8 87 1.1 WSW 35 50 19 27 - - 0.6
03/01:00pm 13.5 8.4 11.9 90 0.9 WSW 30 41 16 22 - - 0.6
03/12:30pm 13.8 9.5 12.2 90 0.9 WSW 26 35 14 19 - - 0.6
03/12:18pm 13.6 8.8 11.8 89 1.0 WSW 28 46 15 25 - - 0.6
03/12:00pm 14.5 11.0 13.5 94 0.6 WSW 24 35 13 19 - - 0.6
03/11:39am 13.8 8.3 12.0 89 1.0 W 32 50 17 27 - - 0.4
03/11:30am 14.0 9.4 12.2 89 1.0 W 28 41 15 22 - - 0.2
03/11:00am 14.3 11.0 12.7 90 0.9 WSW 22 37 12 20 - - 0.2
03/10:30am 14.0 10.2 12.4 90 0.9 WSW 24 35 13 19 - - 0.2
03/10:00am 14.2 7.6 11.2 82 1.6 W 37 63 20 34 - - 0.0
03/09:58am 14.8 8.0 10.6 76 2.2 W 37 63 20 34 - - 0.0
03/09:38am 16.2 10.5 9.8 66 3.4 W 30 50 16 27 - - 0.0
03/09:30am 16.5 11.0 10.4 67 3.3 W 30 39 16 21 - - 0.0
03/09:04am 15.9 9.6 9.8 67 3.2 W 33 52 18 28 - - 0.0
03/09:00am 15.8 8.7 9.5 66 3.3 W 37 52 20 28 - - 8.8
03/08:55am 15.8 9.4 9.2 65 3.4 W 33 52 18 28 - - 8.8
03/08:30am 15.3 7.7 9.2 67 3.2 W 39 56 21 30 - - 8.8
03/08:11am 15.0 8.0 9.8 71 2.7 W 37 59 20 32 - - 8.8
03/08:00am 14.8 7.5 10.2 74 2.4 W 39 57 21 31 - - 8.8
03/07:31am 14.7 7.3 11.1 79 1.9 W 41 61 22 33 - - 8.8
03/07:30am 14.8 7.0 11.2 79 1.9 W 43 61 23 33 - - 8.8
03/07:01am 15.1 8.9 12.8 86 1.3 WNW 37 63 20 34 - - 8.8
03/07:00am 15.1 9.3 12.8 86 1.3 WNW 35 46 19 25 - - 8.8
03/06:30am 15.1 9.5 13.3 89 1.0 WNW 35 50 19 27 - - 8.8
03/06:02am 15.4 8.8 13.6 89 1.0 WNW 41 63 22 34 - - 8.6
03/06:00am 15.4 9.1 13.6 89 1.0 WNW 39 52 21 28 - - 8.6
03/05:43am 15.7 9.7 14.4 92 0.7 WNW 39 57 21 31 - - 8.4
03/05:30am 15.6 9.6 14.5 93 0.6 NW 39 57 21 31 - - 8.4
03/05:01am 15.8 9.4 14.2 90 0.9 WNW 41 61 22 33 - - 7.8
03/05:00am 15.8 9.0 14.2 90 0.9 WNW 43 61 23 33 - - 7.8
03/04:30am 15.4 8.9 14.1 92 0.7 WNW 41 61 22 33 - - 7.6
03/04:20am 15.4 8.5 13.9 91 0.9 NW 43 67 23 36 - - 7.6
03/04:16am 15.5 9.3 13.9 90 0.9 WNW 39 67 21 36 - - 7.4
03/04:00am 15.3 10.2 13.7 90 0.9 NW 33 56 18 30 - - 7.2
03/03:47am 15.2 9.3 13.7 91 0.8 NW 37 59 20 32 - - 7.0
03/03:30am 15.1 8.8 13.5 90 0.9 NW 39 56 21 30 - - 7.0
03/03:02am 15.1 7.8 13.3 89 1.0 NW 44 65 24 35 - - 7.0
03/03:00am 15.1 8.0 13.3 89 1.0 NW 43 59 23 32 - - 7.0
03/02:33am 15.6 9.2 13.1 85 1.4 NW 39 59 21 32 - - 7.0
03/02:30am 15.6 9.5 13.1 85 1.4 NW 37 52 20 28 - - 7.0
03/02:00am 15.3 8.1 13.0 86 1.3 WNW 43 61 23 33 - - 7.0
03/01:45am 15.4 8.1 12.9 85 1.4 NW 43 61 23 33 - - 7.0
03/01:30am 15.7 8.7 12.6 82 1.7 NW 41 59 22 32 - - 7.0
03/01:08am 15.7 9.2 12.8 83 1.6 NW 39 57 21 31 - - 7.0
03/01:00am 15.8 10.1 13.1 84 1.5 NW 35 52 19 28 - - 7.0
03/12:38am 15.8 9.4 13.3 85 1.4 NW 39 57 21 31 - - 7.0
03/12:30am 15.8 9.8 13.3 85 1.4 NW 37 54 20 29 - - 7.0
03/12:00am 15.8 9.1 13.5 86 1.3 NW 41 61 22 33 - - 7.0
 
Date/Time
CST
Temp
°C
App
Temp
°C
Dew
Point
Rel
Hum
%
Delta-T
°C
Wind Press
QNH
hPa
Press
MSL
hPa
Rain
since 9 am
mm
Dir
 
Spd
km/h
Gust
km/h
Spd
kts
Gust
kts
02/11:58pm 15.7 9.4 13.5 87 1.2 NW 39 61 21 33 - - 7.0
02/11:30pm 15.6 9.3 13.6 88 1.1 NW 39 57 21 31 - - 7.0
02/11:08pm 15.5 10.0 13.7 89 1.0 NW 35 56 19 30 - - 7.0
02/11:00pm 15.4 9.5 13.6 89 1.0 NW 37 52 20 28 - - 7.0
02/10:30pm 15.3 9.8 13.7 90 0.9 NW 35 48 19 26 - - 7.0
02/10:00pm 15.5 9.2 13.5 88 1.1 NW 39 56 21 30 - - 7.0
02/09:38pm 15.4 9.9 13.6 89 1.0 NW 35 57 19 31 - - 7.0
02/09:30pm 15.3 9.4 13.5 89 1.0 NW 37 52 20 28 - - 6.8
02/09:00pm 15.3 10.4 13.8 91 0.8 NW 32 44 17 24 - - 6.6
02/08:30pm 15.6 10.4 13.3 86 1.3 NW 33 48 18 26 - - 6.2
02/08:00pm 15.6 9.8 13.8 89 1.0 NW 37 52 20 28 - - 6.2
02/07:32pm 15.3 9.4 13.7 90 0.9 NW 37 57 20 31 - - 6.2
02/07:30pm 15.3 9.8 13.7 90 0.9 NW 35 52 19 28 - - 6.2
02/07:00pm 15.0 9.3 13.0 88 1.1 WNW 35 48 19 26 - - 6.2
02/06:38pm 15.3 8.6 13.3 88 1.1 NW 41 61 22 33 - - 6.2
02/06:30pm 15.6 10.2 13.8 89 1.0 NW 35 50 19 27 - - 6.2
02/06:26pm 15.5 10.4 13.7 89 1.0 NW 33 52 18 28 - - 6.2
02/06:00pm 15.5 9.9 13.3 87 1.2 NW 35 52 19 28 - - 6.2
02/05:30pm 15.5 10.0 13.5 88 1.1 NW 35 54 19 29 - - 6.2
02/05:00pm 15.3 9.7 13.2 87 1.2 NW 35 50 19 27 - - 6.2
02/04:30pm 15.0 10.0 13.4 90 0.9 NW 32 44 17 24 - - 6.2

Other Formats:

Comma delimited format used in spreadsheet applications
http://www.bom.gov.au/fwo/IDS60801/IDS60801.94807.axf

JavaScript Object Notation format (JSON) in row-major order
http://www.bom.gov.au/fwo/IDS60801/IDS60801.94807.json